sensor_id;sensor_type;location;lat;lon;timestamp;temperature;humidity
35240;DHT22;21376;50.954;4.716;2023-03-01T00:01:53;-1.40;99.90
35240;DHT22;21376;50.954;4.716;2023-03-01T00:04:24;-1.60;99.90
35240;DHT22;21376;50.954;4.716;2023-03-01T00:06:53;-1.60;99.90
35240;DHT22;21376;50.954;4.716;2023-03-01T00:09:22;-1.60;99.90
35240;DHT22;21376;50.954;4.716;2023-03-01T00:11:51;-1.70;99.90
35240;DHT22;21376;50.954;4.716;2023-03-01T00:14:19;-1.70;99.90
35240;DHT22;21376;50.954;4.716;2023-03-01T00:16:46;-1.70;99.90
35240;DHT22;21376;50.954;4.716;2023-03-01T00:19:18;-1.70;99.90
35240;DHT22;21376;50.954;4.716;2023-03-01T00:21:46;-1.50;99.90
35240;DHT22;21376;50.954;4.716;2023-03-01T00:24:15;-1.70;99.90
35240;DHT22;21376;50.954;4.716;2023-03-01T00:26:43;-1.70;99.90
35240;DHT22;21376;50.954;4.716;2023-03-01T00:29:12;-1.70;99.90
35240;DHT22;21376;50.954;4.716;2023-03-01T00:31:41;-1.60;99.90
35240;DHT22;21376;50.954;4.716;2023-03-01T00:34:09;-1.80;99.90
35240;DHT22;21376;50.954;4.716;2023-03-01T00:36:36;-1.90;99.90
35240;DHT22;21376;50.954;4.716;2023-03-01T00:39:07;-1.80;99.90
35240;DHT22;21376;50.954;4.716;2023-03-01T00:41:33;-1.80;99.90
35240;DHT22;21376;50.954;4.716;2023-03-01T00:44:00;-1.60;99.90
35240;DHT22;21376;50.954;4.716;2023-03-01T00:46:28;-2.10;99.90
35240;DHT22;21376;50.954;4.716;2023-03-01T00:48:56;-2.00;99.90
35240;DHT22;21376;50.954;4.716;2023-03-01T00:51:26;-2.20;99.90
35240;DHT22;21376;50.954;4.716;2023-03-01T00:53:58;-2.00;99.90
35240;DHT22;21376;50.954;4.716;2023-03-01T00:56:24;-2.00;99.90
35240;DHT22;21376;50.954;4.716;2023-03-01T00:58:50;-2.20;99.90
35240;DHT22;21376;50.954;4.716;2023-03-01T01:01:28;-2.20;99.90
35240;DHT22;21376;50.954;4.716;2023-03-01T01:04:08;-2.10;99.90
35240;DHT22;21376;50.954;4.716;2023-03-01T01:06:37;-2.10;99.90
35240;DHT22;21376;50.954;4.716;2023-03-01T01:09:06;-2.20;99.90
35240;DHT22;21376;50.954;4.716;2023-03-01T01:11:35;-2.10;99.90
35240;DHT22;21376;50.954;4.716;2023-03-01T01:14:07;-2.30;99.90
35240;DHT22;21376;50.954;4.716;2023-03-01T01:16:36;-2.40;99.90
35240;DHT22;21376;50.954;4.716;2023-03-01T01:19:06;-2.40;99.90
35240;DHT22;21376;50.954;4.716;2023-03-01T01:21:47;-2.50;99.90
35240;DHT22;21376;50.954;4.716;2023-03-01T01:24:17;-2.50;99.90
35240;DHT22;21376;50.954;4.716;2023-03-01T01:26:49;-2.40;99.90
35240;DHT22;21376;50.954;4.716;2023-03-01T01:29:18;-2.50;99.90
35240;DHT22;21376;50.954;4.716;2023-03-01T01:31:46;-2.50;99.90
35240;DHT22;21376;50.954;4.716;2023-03-01T01:34:19;-2.40;99.90
35240;DHT22;21376;50.954;4.716;2023-03-01T01:36:50;-2.60;99.90
35240;DHT22;21376;50.954;4.716;2023-03-01T01:39:20;-2.40;99.90
35240;DHT22;21376;50.954;4.716;2023-03-01T01:41:48;-2.60;99.90
35240;DHT22;21376;50.954;4.716;2023-03-01T01:44:24;-2.60;99.90
35240;DHT22;21376;50.954;4.716;2023-03-01T01:47:03;-2.40;99.90
35240;DHT22;21376;50.954;4.716;2023-03-01T01:49:50;-2.50;99.90
35240;DHT22;21376;50.954;4.716;2023-03-01T01:52:29;-2.60;99.90
35240;DHT22;21376;50.954;4.716;2023-03-01T01:55:09;-2.50;99.90
35240;DHT22;21376;50.954;4.716;2023-03-01T01:57:42;-2.50;99.90
35240;DHT22;21376;50.954;4.716;2023-03-01T02:02:46;-2.70;99.90
35240;DHT22;21376;50.954;4.716;2023-03-01T02:05:46;-2.60;99.90
35240;DHT22;21376;50.954;4.716;2023-03-01T02:08:18;-2.60;99.90
35240;DHT22;21376;50.954;4.716;2023-03-01T02:10:46;-2.40;99.90
35240;DHT22;21376;50.954;4.716;2023-03-01T02:13:16;-2.40;99.90
35240;DHT22;21376;50.954;4.716;2023-03-01T02:15:49;-2.50;99.90
35240;DHT22;21376;50.954;4.716;2023-03-01T02:18:18;-2.50;99.90
35240;DHT22;21376;50.954;4.716;2023-03-01T02:23:28;-2.50;99.90
35240;DHT22;21376;50.954;4.716;2023-03-01T02:28:53;-2.70;99.90
35240;DHT22;21376;50.954;4.716;2023-03-01T02:31:23;-2.60;99.90
35240;DHT22;21376;50.954;4.716;2023-03-01T02:34:18;-2.60;99.90
35240;DHT22;21376;50.954;4.716;2023-03-01T02:37:07;-2.60;99.90
35240;DHT22;21376;50.954;4.716;2023-03-01T02:39:48;-2.80;99.90
35240;DHT22;21376;50.954;4.716;2023-03-01T02:42:20;-2.90;99.90
35240;DHT22;21376;50.954;4.716;2023-03-01T02:44:49;-3.10;99.90
35240;DHT22;21376;50.954;4.716;2023-03-01T02:47:17;-2.90;99.90
35240;DHT22;21376;50.954;4.716;2023-03-01T02:49:46;-3.20;99.90
35240;DHT22;21376;50.954;4.716;2023-03-01T02:55:26;-3.10;99.90
35240;DHT22;21376;50.954;4.716;2023-03-01T02:57:55;-3.00;99.90
35240;DHT22;21376;50.954;4.716;2023-03-01T03:00:30;-3.30;99.90
35240;DHT22;21376;50.954;4.716;2023-03-01T03:02:59;-3.10;99.90
35240;DHT22;21376;50.954;4.716;2023-03-01T03:05:31;-3.20;99.90
35240;DHT22;21376;50.954;4.716;2023-03-01T03:08:01;-3.00;99.90
35240;DHT22;21376;50.954;4.716;2023-03-01T03:10:35;-3.10;99.90
35240;DHT22;21376;50.954;4.716;2023-03-01T03:13:05;-3.50;99.90
35240;DHT22;21376;50.954;4.716;2023-03-01T03:15:34;-3.40;99.90
35240;DHT22;21376;50.954;4.716;2023-03-01T03:18:02;-3.40;99.90
35240;DHT22;21376;50.954;4.716;2023-03-01T03:20:33;-3.40;99.90
35240;DHT22;21376;50.954;4.716;2023-03-01T03:23:00;-3.20;99.90
35240;DHT22;21376;50.954;4.716;2023-03-01T03:25:27;-3.50;99.90
35240;DHT22;21376;50.954;4.716;2023-03-01T03:27:55;-3.40;99.90
35240;DHT22;21376;50.954;4.716;2023-03-01T03:30:30;-3.50;99.90
35240;DHT22;21376;50.954;4.716;2023-03-01T03:36:17;-3.50;99.90
35240;DHT22;21376;50.954;4.716;2023-03-01T03:38:46;-3.40;99.90
35240;DHT22;21376;50.954;4.716;2023-03-01T03:41:14;-3.50;99.90
35240;DHT22;21376;50.954;4.716;2023-03-01T03:43:43;-3.40;99.90
35240;DHT22;21376;50.954;4.716;2023-03-01T03:46:11;-3.40;99.90
35240;DHT22;21376;50.954;4.716;2023-03-01T03:48:42;-3.30;99.90
35240;DHT22;21376;50.954;4.716;2023-03-01T03:51:16;-3.10;99.90
35240;DHT22;21376;50.954;4.716;2023-03-01T03:53:46;-3.30;99.90
35240;DHT22;21376;50.954;4.716;2023-03-01T03:56:15;-3.20;99.90
35240;DHT22;21376;50.954;4.716;2023-03-01T03:58:48;-3.00;99.90
35240;DHT22;21376;50.954;4.716;2023-03-01T04:01:17;-3.00;99.90
35240;DHT22;21376;50.954;4.716;2023-03-01T04:03:43;-3.00;99.90
35240;DHT22;21376;50.954;4.716;2023-03-01T04:06:15;-3.10;99.90
35240;DHT22;21376;50.954;4.716;2023-03-01T04:08:43;-3.20;99.90
35240;DHT22;21376;50.954;4.716;2023-03-01T04:11:12;-3.30;99.90
35240;DHT22;21376;50.954;4.716;2023-03-01T04:13:57;-3.30;99.90
35240;DHT22;21376;50.954;4.716;2023-03-01T04:16:24;-3.40;99.90
35240;DHT22;21376;50.954;4.716;2023-03-01T04:18:53;-3.40;99.90
35240;DHT22;21376;50.954;4.716;2023-03-01T04:21:20;-3.10;99.90
35240;DHT22;21376;50.954;4.716;2023-03-01T04:23:46;-3.30;99.90
35240;DHT22;21376;50.954;4.716;2023-03-01T04:26:14;-3.20;99.90
35240;DHT22;21376;50.954;4.716;2023-03-01T04:28:42;-3.00;99.90
35240;DHT22;21376;50.954;4.716;2023-03-01T04:31:27;-3.20;99.90
35240;DHT22;21376;50.954;4.716;2023-03-01T04:33:56;-3.20;99.90
35240;DHT22;21376;50.954;4.716;2023-03-01T04:36:25;-3.20;99.90
35240;DHT22;21376;50.954;4.716;2023-03-01T04:38:51;-3.40;99.90
35240;DHT22;21376;50.954;4.716;2023-03-01T04:41:19;-3.20;99.90
35240;DHT22;21376;50.954;4.716;2023-03-01T04:43:49;-3.40;99.90
35240;DHT22;21376;50.954;4.716;2023-03-01T04:46:19;-3.30;99.90
35240;DHT22;21376;50.954;4.716;2023-03-01T04:48:55;-3.50;99.90
35240;DHT22;21376;50.954;4.716;2023-03-01T04:51:24;-3.40;99.90
35240;DHT22;21376;50.954;4.716;2023-03-01T04:53:53;-3.70;99.90
35240;DHT22;21376;50.954;4.716;2023-03-01T04:56:25;-3.70;99.90
35240;DHT22;21376;50.954;4.716;2023-03-01T04:58:54;-3.70;99.90
35240;DHT22;21376;50.954;4.716;2023-03-01T05:01:27;-3.80;99.90
35240;DHT22;21376;50.954;4.716;2023-03-01T05:03:54;-3.80;99.90
35240;DHT22;21376;50.954;4.716;2023-03-01T05:06:20;-4.00;99.90
35240;DHT22;21376;50.954;4.716;2023-03-01T05:08:46;-3.80;99.90
35240;DHT22;21376;50.954;4.716;2023-03-01T05:11:15;-4.00;99.90
35240;DHT22;21376;50.954;4.716;2023-03-01T05:16:42;-3.70;99.90
35240;DHT22;21376;50.954;4.716;2023-03-01T05:19:11;-3.50;99.90
35240;DHT22;21376;50.954;4.716;2023-03-01T05:21:43;-3.60;99.90
35240;DHT22;21376;50.954;4.716;2023-03-01T05:24:33;-3.60;99.90
35240;DHT22;21376;50.954;4.716;2023-03-01T05:27:02;-3.60;99.90
35240;DHT22;21376;50.954;4.716;2023-03-01T05:29:30;-3.60;99.90
35240;DHT22;21376;50.954;4.716;2023-03-01T05:32:00;-3.60;99.90
35240;DHT22;21376;50.954;4.716;2023-03-01T05:34:34;-3.70;99.90
35240;DHT22;21376;50.954;4.716;2023-03-01T05:37:04;-3.90;99.90
35240;DHT22;21376;50.954;4.716;2023-03-01T05:39:32;-3.70;99.90
35240;DHT22;21376;50.954;4.716;2023-03-01T05:42:00;-3.60;99.90
35240;DHT22;21376;50.954;4.716;2023-03-01T05:44:28;-3.40;99.90
35240;DHT22;21376;50.954;4.716;2023-03-01T05:46:57;-3.50;99.90
35240;DHT22;21376;50.954;4.716;2023-03-01T05:49:26;-3.40;99.90
35240;DHT22;21376;50.954;4.716;2023-03-01T05:51:58;-3.30;99.90
35240;DHT22;21376;50.954;4.716;2023-03-01T05:54:26;-3.60;99.90
35240;DHT22;21376;50.954;4.716;2023-03-01T05:56:55;-3.40;99.90
35240;DHT22;21376;50.954;4.716;2023-03-01T05:59:24;-3.70;99.90
35240;DHT22;21376;50.954;4.716;2023-03-01T06:01:50;-3.70;99.90
35240;DHT22;21376;50.954;4.716;2023-03-01T06:04:18;-3.70;99.90
35240;DHT22;21376;50.954;4.716;2023-03-01T06:06:48;-3.90;99.90
35240;DHT22;21376;50.954;4.716;2023-03-01T06:09:16;-3.90;99.90
35240;DHT22;21376;50.954;4.716;2023-03-01T06:11:42;-3.70;99.90
35240;DHT22;21376;50.954;4.716;2023-03-01T06:14:11;-3.90;99.90
35240;DHT22;21376;50.954;4.716;2023-03-01T06:16:46;-4.00;99.90
35240;DHT22;21376;50.954;4.716;2023-03-01T06:19:14;-3.90;99.90
35240;DHT22;21376;50.954;4.716;2023-03-01T06:21:46;-4.00;99.90
35240;DHT22;21376;50.954;4.716;2023-03-01T06:24:13;-4.00;99.90
35240;DHT22;21376;50.954;4.716;2023-03-01T06:26:42;-3.90;99.90
35240;DHT22;21376;50.954;4.716;2023-03-01T06:29:18;-4.20;99.90
35240;DHT22;21376;50.954;4.716;2023-03-01T06:31:46;-4.00;99.90
35240;DHT22;21376;50.954;4.716;2023-03-01T06:34:12;-3.80;99.90
35240;DHT22;21376;50.954;4.716;2023-03-01T06:36:39;-3.90;99.90
35240;DHT22;21376;50.954;4.716;2023-03-01T06:39:08;-3.90;99.90
35240;DHT22;21376;50.954;4.716;2023-03-01T06:41:35;-3.90;99.90
35240;DHT22;21376;50.954;4.716;2023-03-01T06:44:04;-3.60;99.90
35240;DHT22;21376;50.954;4.716;2023-03-01T06:46:33;-3.70;99.90
35240;DHT22;21376;50.954;4.716;2023-03-01T06:48:59;-3.80;99.90
35240;DHT22;21376;50.954;4.716;2023-03-01T06:51:32;-3.90;99.90
35240;DHT22;21376;50.954;4.716;2023-03-01T06:54:00;-3.70;99.90
35240;DHT22;21376;50.954;4.716;2023-03-01T06:56:38;-3.80;99.90
35240;DHT22;21376;50.954;4.716;2023-03-01T06:59:07;-3.80;99.90
35240;DHT22;21376;50.954;4.716;2023-03-01T07:01:36;-3.80;99.90
35240;DHT22;21376;50.954;4.716;2023-03-01T07:04:01;-3.70;99.90
35240;DHT22;21376;50.954;4.716;2023-03-01T07:06:30;-3.70;99.90
35240;DHT22;21376;50.954;4.716;2023-03-01T07:09:02;-3.50;99.90
35240;DHT22;21376;50.954;4.716;2023-03-01T07:11:31;-3.60;99.90
35240;DHT22;21376;50.954;4.716;2023-03-01T07:13:57;-3.60;99.90
35240;DHT22;21376;50.954;4.716;2023-03-01T07:16:26;-3.40;99.90
35240;DHT22;21376;50.954;4.716;2023-03-01T07:18:52;-2.80;99.90
35240;DHT22;21376;50.954;4.716;2023-03-01T07:21:19;-1.20;99.90
35240;DHT22;21376;50.954;4.716;2023-03-01T07:23:49;0.70;99.90
35240;DHT22;21376;50.954;4.716;2023-03-01T07:26:18;2.40;99.90
35240;DHT22;21376;50.954;4.716;2023-03-01T07:28:44;3.80;99.90
35240;DHT22;21376;50.954;4.716;2023-03-01T07:31:13;4.70;99.90
35240;DHT22;21376;50.954;4.716;2023-03-01T07:33:42;5.70;99.90
35240;DHT22;21376;50.954;4.716;2023-03-01T07:36:11;7.10;99.90
35240;DHT22;21376;50.954;4.716;2023-03-01T07:38:37;8.10;99.90
35240;DHT22;21376;50.954;4.716;2023-03-01T07:41:06;9.00;99.90
35240;DHT22;21376;50.954;4.716;2023-03-01T07:43:38;9.20;99.90
35240;DHT22;21376;50.954;4.716;2023-03-01T07:46:07;9.80;99.90
35240;DHT22;21376;50.954;4.716;2023-03-01T07:48:33;10.50;98.10
35240;DHT22;21376;50.954;4.716;2023-03-01T07:51:13;10.80;96.70
35240;DHT22;21376;50.954;4.716;2023-03-01T07:53:41;10.50;95.80
35240;DHT22;21376;50.954;4.716;2023-03-01T07:56:11;11.40;94.70
35240;DHT22;21376;50.954;4.716;2023-03-01T07:58:40;11.50;93.40
35240;DHT22;21376;50.954;4.716;2023-03-01T08:01:08;11.50;94.20
35240;DHT22;21376;50.954;4.716;2023-03-01T08:03:41;12.30;92.30
35240;DHT22;21376;50.954;4.716;2023-03-01T08:06:12;12.00;92.00
35240;DHT22;21376;50.954;4.716;2023-03-01T08:08:41;12.60;90.90
35240;DHT22;21376;50.954;4.716;2023-03-01T08:11:11;13.00;89.50
35240;DHT22;21376;50.954;4.716;2023-03-01T08:13:37;12.40;89.50
35240;DHT22;21376;50.954;4.716;2023-03-01T08:16:14;12.50;90.20
35240;DHT22;21376;50.954;4.716;2023-03-01T08:18:46;12.90;89.10
35240;DHT22;21376;50.954;4.716;2023-03-01T08:21:17;13.10;87.80
35240;DHT22;21376;50.954;4.716;2023-03-01T08:23:45;13.50;88.40
35240;DHT22;21376;50.954;4.716;2023-03-01T08:26:15;13.90;86.10
35240;DHT22;21376;50.954;4.716;2023-03-01T08:28:42;14.30;83.40
35240;DHT22;21376;50.954;4.716;2023-03-01T08:33:46;15.00;80.80
35240;DHT22;21376;50.954;4.716;2023-03-01T08:36:18;15.00;81.80
35240;DHT22;21376;50.954;4.716;2023-03-01T08:38:45;15.10;80.70
35240;DHT22;21376;50.954;4.716;2023-03-01T08:41:12;15.10;79.00
35240;DHT22;21376;50.954;4.716;2023-03-01T08:43:41;14.80;79.20
35240;DHT22;21376;50.954;4.716;2023-03-01T08:46:08;15.00;76.80
35240;DHT22;21376;50.954;4.716;2023-03-01T08:48:34;14.60;78.10
35240;DHT22;21376;50.954;4.716;2023-03-01T08:51:15;15.20;78.10
35240;DHT22;21376;50.954;4.716;2023-03-01T08:53:45;15.80;76.10
35240;DHT22;21376;50.954;4.716;2023-03-01T08:56:11;15.70;76.10
35240;DHT22;21376;50.954;4.716;2023-03-01T08:58:37;15.00;76.20
35240;DHT22;21376;50.954;4.716;2023-03-01T09:01:12;16.30;75.00
35240;DHT22;21376;50.954;4.716;2023-03-01T09:03:39;16.70;71.70
35240;DHT22;21376;50.954;4.716;2023-03-01T09:06:07;16.60;72.90
35240;DHT22;21376;50.954;4.716;2023-03-01T09:08:43;16.50;71.40
35240;DHT22;21376;50.954;4.716;2023-03-01T09:11:10;15.60;74.20
35240;DHT22;21376;50.954;4.716;2023-03-01T09:13:36;15.70;71.90
35240;DHT22;21376;50.954;4.716;2023-03-01T09:16:07;16.30;71.10
35240;DHT22;21376;50.954;4.716;2023-03-01T09:18:39;15.50;73.40
35240;DHT22;21376;50.954;4.716;2023-03-01T09:21:15;16.40;71.70
35240;DHT22;21376;50.954;4.716;2023-03-01T09:23:42;16.50;70.10
35240;DHT22;21376;50.954;4.716;2023-03-01T09:26:15;16.10;71.10
35240;DHT22;21376;50.954;4.716;2023-03-01T09:28:45;15.90;70.00
35240;DHT22;21376;50.954;4.716;2023-03-01T09:31:12;16.20;69.10
35240;DHT22;21376;50.954;4.716;2023-03-01T09:33:42;16.00;70.30
35240;DHT22;21376;50.954;4.716;2023-03-01T09:36:12;17.00;69.10
35240;DHT22;21376;50.954;4.716;2023-03-01T09:38:40;17.50;66.10
35240;DHT22;21376;50.954;4.716;2023-03-01T09:46:44;17.00;65.90
35240;DHT22;21376;50.954;4.716;2023-03-01T09:49:30;17.10;64.80
35240;DHT22;21376;50.954;4.716;2023-03-01T09:52:06;16.60;65.30
35240;DHT22;21376;50.954;4.716;2023-03-01T09:54:38;16.40;67.90
35240;DHT22;21376;50.954;4.716;2023-03-01T09:59:48;17.50;64.00
35240;DHT22;21376;50.954;4.716;2023-03-01T10:10:28;14.90;68.60
35240;DHT22;21376;50.954;4.716;2023-03-01T10:13:04;14.00;69.50
35240;DHT22;21376;50.954;4.716;2023-03-01T10:15:44;14.20;70.40
35240;DHT22;21376;50.954;4.716;2023-03-01T10:18:18;14.80;68.30
35240;DHT22;21376;50.954;4.716;2023-03-01T10:21:15;13.50;70.60
35240;DHT22;21376;50.954;4.716;2023-03-01T10:23:46;14.30;70.50
35240;DHT22;21376;50.954;4.716;2023-03-01T10:29:22;14.50;69.70
35240;DHT22;21376;50.954;4.716;2023-03-01T10:31:51;14.10;69.80
35240;DHT22;21376;50.954;4.716;2023-03-01T10:34:21;14.90;68.30
35240;DHT22;21376;50.954;4.716;2023-03-01T10:36:53;14.90;67.40
35240;DHT22;21376;50.954;4.716;2023-03-01T10:39:25;14.40;67.90
35240;DHT22;21376;50.954;4.716;2023-03-01T10:44:47;14.30;68.70
35240;DHT22;21376;50.954;4.716;2023-03-01T10:47:20;14.30;69.00
35240;DHT22;21376;50.954;4.716;2023-03-01T10:49:53;14.70;68.50
35240;DHT22;21376;50.954;4.716;2023-03-01T10:52:29;14.20;68.90
35240;DHT22;21376;50.954;4.716;2023-03-01T10:54:58;15.00;67.40
35240;DHT22;21376;50.954;4.716;2023-03-01T10:57:37;14.30;68.20
35240;DHT22;21376;50.954;4.716;2023-03-01T11:00:23;14.90;67.60
35240;DHT22;21376;50.954;4.716;2023-03-01T11:03:03;16.00;64.70
35240;DHT22;21376;50.954;4.716;2023-03-01T11:05:34;16.20;65.00
35240;DHT22;21376;50.954;4.716;2023-03-01T11:08:06;15.70;65.70
35240;DHT22;21376;50.954;4.716;2023-03-01T11:10:36;16.20;66.10
35240;DHT22;21376;50.954;4.716;2023-03-01T11:13:18;15.40;65.70
35240;DHT22;21376;50.954;4.716;2023-03-01T11:16:06;16.60;64.30
35240;DHT22;21376;50.954;4.716;2023-03-01T11:18:34;16.60;62.30
35240;DHT22;21376;50.954;4.716;2023-03-01T11:21:07;15.90;63.80
35240;DHT22;21376;50.954;4.716;2023-03-01T11:23:37;15.10;65.60
35240;DHT22;21376;50.954;4.716;2023-03-01T11:26:09;15.30;65.40
35240;DHT22;21376;50.954;4.716;2023-03-01T11:28:40;15.90;63.30
35240;DHT22;21376;50.954;4.716;2023-03-01T11:31:11;16.10;63.00
35240;DHT22;21376;50.954;4.716;2023-03-01T11:34:15;15.90;61.70
35240;DHT22;21376;50.954;4.716;2023-03-01T11:36:49;15.90;62.50
35240;DHT22;21376;50.954;4.716;2023-03-01T11:39:43;16.50;61.50
35240;DHT22;21376;50.954;4.716;2023-03-01T11:42:24;17.00;60.90
35240;DHT22;21376;50.954;4.716;2023-03-01T11:45:11;17.50;61.40
35240;DHT22;21376;50.954;4.716;2023-03-01T11:48:00;15.20;61.60
35240;DHT22;21376;50.954;4.716;2023-03-01T11:50:50;15.20;65.00
35240;DHT22;21376;50.954;4.716;2023-03-01T11:56:31;15.80;61.50
35240;DHT22;21376;50.954;4.716;2023-03-01T12:08:17;14.60;65.40
35240;DHT22;21376;50.954;4.716;2023-03-01T12:19:58;15.70;61.20
35240;DHT22;21376;50.954;4.716;2023-03-01T12:25:16;12.20;65.70
35240;DHT22;21376;50.954;4.716;2023-03-01T12:42:04;14.70;64.70
35240;DHT22;21376;50.954;4.716;2023-03-01T12:44:35;14.70;65.40
35240;DHT22;21376;50.954;4.716;2023-03-01T12:50:37;14.60;63.60
35240;DHT22;21376;50.954;4.716;2023-03-01T12:53:04;15.00;63.70
35240;DHT22;21376;50.954;4.716;2023-03-01T12:55:41;14.70;63.10
35240;DHT22;21376;50.954;4.716;2023-03-01T13:01:22;14.10;64.40
35240;DHT22;21376;50.954;4.716;2023-03-01T13:04:17;14.00;64.40
35240;DHT22;21376;50.954;4.716;2023-03-01T13:06:59;13.70;64.80
35240;DHT22;21376;50.954;4.716;2023-03-01T13:12:50;13.00;65.80
35240;DHT22;21376;50.954;4.716;2023-03-01T13:17:51;13.20;67.20
35240;DHT22;21376;50.954;4.716;2023-03-01T13:21:06;13.20;66.30
35240;DHT22;21376;50.954;4.716;2023-03-01T13:28:48;13.20;67.90
35240;DHT22;21376;50.954;4.716;2023-03-01T13:39:28;12.30;70.70
35240;DHT22;21376;50.954;4.716;2023-03-01T13:41:56;11.60;70.70
35240;DHT22;21376;50.954;4.716;2023-03-01T13:44:37;11.10;72.30
35240;DHT22;21376;50.954;4.716;2023-03-01T13:47:16;10.90;73.30
35240;DHT22;21376;50.954;4.716;2023-03-01T13:49:49;10.20;75.00
35240;DHT22;21376;50.954;4.716;2023-03-01T13:52:35;9.90;76.40
35240;DHT22;21376;50.954;4.716;2023-03-01T13:55:04;9.50;78.30
35240;DHT22;21376;50.954;4.716;2023-03-01T13:57:34;9.40;78.00
35240;DHT22;21376;50.954;4.716;2023-03-01T14:00:02;9.40;78.90
35240;DHT22;21376;50.954;4.716;2023-03-01T14:02:31;9.30;78.70
35240;DHT22;21376;50.954;4.716;2023-03-01T14:04:59;9.10;78.90
35240;DHT22;21376;50.954;4.716;2023-03-01T14:07:27;9.10;79.30
35240;DHT22;21376;50.954;4.716;2023-03-01T14:10:03;8.70;80.10
35240;DHT22;21376;50.954;4.716;2023-03-01T14:18:21;9.30;80.80
35240;DHT22;21376;50.954;4.716;2023-03-01T14:20:57;9.10;79.40
35240;DHT22;21376;50.954;4.716;2023-03-01T14:23:26;9.00;80.60
35240;DHT22;21376;50.954;4.716;2023-03-01T14:25:58;8.70;83.00
35240;DHT22;21376;50.954;4.716;2023-03-01T14:28:29;8.70;84.00
35240;DHT22;21376;50.954;4.716;2023-03-01T14:31:02;8.70;83.50
35240;DHT22;21376;50.954;4.716;2023-03-01T14:33:31;8.90;82.20
35240;DHT22;21376;50.954;4.716;2023-03-01T14:36:08;8.70;79.20
35240;DHT22;21376;50.954;4.716;2023-03-01T14:41:06;8.90;80.80
35240;DHT22;21376;50.954;4.716;2023-03-01T14:43:33;8.60;81.10
35240;DHT22;21376;50.954;4.716;2023-03-01T14:46:01;8.70;81.30
35240;DHT22;21376;50.954;4.716;2023-03-01T14:48:27;8.60;81.90
35240;DHT22;21376;50.954;4.716;2023-03-01T14:50:54;8.60;82.20
35240;DHT22;21376;50.954;4.716;2023-03-01T14:53:29;8.40;81.50
35240;DHT22;21376;50.954;4.716;2023-03-01T14:56:02;8.50;82.50
35240;DHT22;21376;50.954;4.716;2023-03-01T14:58:31;8.60;80.80
35240;DHT22;21376;50.954;4.716;2023-03-01T15:01:03;8.40;82.90
35240;DHT22;21376;50.954;4.716;2023-03-01T15:03:46;8.30;82.20
35240;DHT22;21376;50.954;4.716;2023-03-01T15:06:17;8.30;82.00
35240;DHT22;21376;50.954;4.716;2023-03-01T15:08:49;8.20;83.00
35240;DHT22;21376;50.954;4.716;2023-03-01T15:11:29;8.10;82.40
35240;DHT22;21376;50.954;4.716;2023-03-01T15:13:58;8.20;82.00
35240;DHT22;21376;50.954;4.716;2023-03-01T15:18:56;8.20;81.40
35240;DHT22;21376;50.954;4.716;2023-03-01T15:21:30;8.10;81.50
35240;DHT22;21376;50.954;4.716;2023-03-01T15:26:39;7.90;82.60
35240;DHT22;21376;50.954;4.716;2023-03-01T15:29:19;8.20;81.50
35240;DHT22;21376;50.954;4.716;2023-03-01T15:32:03;8.10;81.80
35240;DHT22;21376;50.954;4.716;2023-03-01T15:34:35;8.00;80.80
35240;DHT22;21376;50.954;4.716;2023-03-01T15:37:32;8.10;81.90
35240;DHT22;21376;50.954;4.716;2023-03-01T15:39:55;8.10;82.30
35240;DHT22;21376;50.954;4.716;2023-03-01T15:48:15;8.00;81.30
35240;DHT22;21376;50.954;4.716;2023-03-01T15:50:43;8.00;81.00
35240;DHT22;21376;50.954;4.716;2023-03-01T15:53:13;7.80;82.00
35240;DHT22;21376;50.954;4.716;2023-03-01T15:55:41;7.80;82.30
35240;DHT22;21376;50.954;4.716;2023-03-01T15:58:13;7.70;84.10
35240;DHT22;21376;50.954;4.716;2023-03-01T16:00:39;7.80;83.60
35240;DHT22;21376;50.954;4.716;2023-03-01T16:03:07;7.80;83.40
35240;DHT22;21376;50.954;4.716;2023-03-01T16:05:38;7.70;84.00
35240;DHT22;21376;50.954;4.716;2023-03-01T16:08:05;7.70;84.60
35240;DHT22;21376;50.954;4.716;2023-03-01T16:10:33;7.70;85.50
35240;DHT22;21376;50.954;4.716;2023-03-01T16:13:00;7.70;85.40
35240;DHT22;21376;50.954;4.716;2023-03-01T16:15:33;7.60;86.40
35240;DHT22;21376;50.954;4.716;2023-03-01T16:18:13;7.60;86.10
35240;DHT22;21376;50.954;4.716;2023-03-01T16:20:42;7.50;87.10
35240;DHT22;21376;50.954;4.716;2023-03-01T16:23:11;7.60;87.10
35240;DHT22;21376;50.954;4.716;2023-03-01T16:25:37;7.50;87.60
35240;DHT22;21376;50.954;4.716;2023-03-01T16:28:04;7.60;87.90
35240;DHT22;21376;50.954;4.716;2023-03-01T16:30:32;7.40;88.30
35240;DHT22;21376;50.954;4.716;2023-03-01T16:32:59;7.40;89.40
35240;DHT22;21376;50.954;4.716;2023-03-01T16:35:27;7.40;89.40
35240;DHT22;21376;50.954;4.716;2023-03-01T16:37:56;7.40;89.20
35240;DHT22;21376;50.954;4.716;2023-03-01T16:40:28;7.30;90.10
35240;DHT22;21376;50.954;4.716;2023-03-01T16:42:55;7.30;90.30
35240;DHT22;21376;50.954;4.716;2023-03-01T16:45:25;7.10;90.60
35240;DHT22;21376;50.954;4.716;2023-03-01T16:47:54;7.10;90.50
35240;DHT22;21376;50.954;4.716;2023-03-01T16:50:20;7.00;91.00
35240;DHT22;21376;50.954;4.716;2023-03-01T16:52:47;7.10;90.90
35240;DHT22;21376;50.954;4.716;2023-03-01T16:55:15;7.20;91.30
35240;DHT22;21376;50.954;4.716;2023-03-01T16:57:41;7.00;91.20
35240;DHT22;21376;50.954;4.716;2023-03-01T17:00:12;7.00;91.60
35240;DHT22;21376;50.954;4.716;2023-03-01T17:02:39;6.90;91.40
35240;DHT22;21376;50.954;4.716;2023-03-01T17:05:07;7.00;92.00
35240;DHT22;21376;50.954;4.716;2023-03-01T17:07:33;6.80;91.80
35240;DHT22;21376;50.954;4.716;2023-03-01T17:10:05;6.90;91.90
35240;DHT22;21376;50.954;4.716;2023-03-01T17:12:34;6.70;92.10
35240;DHT22;21376;50.954;4.716;2023-03-01T17:15:00;6.70;92.20
35240;DHT22;21376;50.954;4.716;2023-03-01T17:17:27;6.50;92.80
35240;DHT22;21376;50.954;4.716;2023-03-01T17:19:54;6.40;94.80
35240;DHT22;21376;50.954;4.716;2023-03-01T17:22:22;6.30;93.80
35240;DHT22;21376;50.954;4.716;2023-03-01T17:24:48;6.20;93.70
35240;DHT22;21376;50.954;4.716;2023-03-01T17:27:17;6.40;93.70
35240;DHT22;21376;50.954;4.716;2023-03-01T17:29:46;6.20;93.90
35240;DHT22;21376;50.954;4.716;2023-03-01T17:32:13;6.20;94.20
35240;DHT22;21376;50.954;4.716;2023-03-01T17:34:39;6.00;94.60
35240;DHT22;21376;50.954;4.716;2023-03-01T17:37:06;5.90;95.00
35240;DHT22;21376;50.954;4.716;2023-03-01T17:39:34;5.90;95.00
35240;DHT22;21376;50.954;4.716;2023-03-01T17:42:04;5.90;95.00
35240;DHT22;21376;50.954;4.716;2023-03-01T17:44:32;5.80;95.10
35240;DHT22;21376;50.954;4.716;2023-03-01T17:47:02;5.80;95.10
35240;DHT22;21376;50.954;4.716;2023-03-01T17:49:29;5.80;95.20
35240;DHT22;21376;50.954;4.716;2023-03-01T17:52:05;5.70;95.50
35240;DHT22;21376;50.954;4.716;2023-03-01T17:54:51;5.70;95.80
35240;DHT22;21376;50.954;4.716;2023-03-01T17:57:17;5.70;95.70
35240;DHT22;21376;50.954;4.716;2023-03-01T17:59:44;5.60;95.90
35240;DHT22;21376;50.954;4.716;2023-03-01T18:02:11;5.60;96.30
35240;DHT22;21376;50.954;4.716;2023-03-01T18:04:37;5.60;96.50
35240;DHT22;21376;50.954;4.716;2023-03-01T18:07:06;5.30;96.80